sensor_id;sensor_type;location;lat;lon;timestamp;P1;P2;P0
76784;PMS7003;66893;44.316;0.092;2024-01-30T00:00:54;11.50;10.75;8.50
76784;PMS7003;66893;44.316;0.092;2024-01-30T00:03:19;10.75;10.00;7.50
76784;PMS7003;66893;44.316;0.092;2024-01-30T00:05:45;11.50;7.75;6.75
76784;PMS7003;66893;44.316;0.092;2024-01-30T00:08:10;9.00;9.00;7.75
76784;PMS7003;66893;44.316;0.092;2024-01-30T00:10:36;10.50;9.75;6.75
76784;PMS7003;66893;44.316;0.092;2024-01-30T00:13:01;12.00;10.25;7.75
76784;PMS7003;66893;44.316;0.092;2024-01-30T00:15:27;13.50;9.75;6.75
76784;PMS7003;66893;44.316;0.092;2024-01-30T00:17:53;9.50;9.50;8.50
76784;PMS7003;66893;44.316;0.092;2024-01-30T00:20:18;10.50;8.00;5.00
76784;PMS7003;66893;44.316;0.092;2024-01-30T00:22:44;11.00;10.50;7.50
76784;PMS7003;66893;44.316;0.092;2024-01-30T00:25:09;12.75;10.25;8.25
76784;PMS7003;66893;44.316;0.092;2024-01-30T00:27:35;9.50;9.25;7.00
76784;PMS7003;66893;44.316;0.092;2024-01-30T00:30:00;8.50;7.50;5.25
76784;PMS7003;66893;44.316;0.092;2024-01-30T00:32:26;8.00;7.75;6.00
76784;PMS7003;66893;44.316;0.092;2024-01-30T00:34:51;11.50;9.50;7.75
76784;PMS7003;66893;44.316;0.092;2024-01-30T00:37:17;8.25;8.25;6.75
76784;PMS7003;66893;44.316;0.092;2024-01-30T00:39:42;8.50;8.25;6.50
76784;PMS7003;66893;44.316;0.092;2024-01-30T00:42:07;16.75;9.25;6.75
76784;PMS7003;66893;44.316;0.092;2024-01-30T00:44:36;14.00;11.75;8.25
76784;PMS7003;66893;44.316;0.092;2024-01-30T00:47:04;9.50;8.00;6.75
76784;PMS7003;66893;44.316;0.092;2024-01-30T00:49:30;13.75;11.00;8.25
76784;PMS7003;66893;44.316;0.092;2024-01-30T00:51:55;8.75;8.00;6.75
76784;PMS7003;66893;44.316;0.092;2024-01-30T00:54:21;9.25;8.50;5.75
76784;PMS7003;66893;44.316;0.092;2024-01-30T00:56:46;10.25;10.25;8.50
76784;PMS7003;66893;44.316;0.092;2024-01-30T00:59:11;9.50;8.50;7.50
76784;PMS7003;66893;44.316;0.092;2024-01-30T01:01:37;9.25;9.00;6.75
76784;PMS7003;66893;44.316;0.092;2024-01-30T01:04:02;12.00;9.75;7.00
76784;PMS7003;66893;44.316;0.092;2024-01-30T01:06:28;14.75;12.25;8.25
76784;PMS7003;66893;44.316;0.092;2024-01-30T01:08:53;11.50;11.25;8.75
76784;PMS7003;66893;44.316;0.092;2024-01-30T01:11:19;10.50;10.00;8.00
76784;PMS7003;66893;44.316;0.092;2024-01-30T01:13:44;10.75;8.50;7.25
76784;PMS7003;66893;44.316;0.092;2024-01-30T01:16:09;9.75;8.75;6.75
76784;PMS7003;66893;44.316;0.092;2024-01-30T01:18:35;14.50;12.00;9.00
76784;PMS7003;66893;44.316;0.092;2024-01-30T01:21:00;10.75;10.75;8.50
76784;PMS7003;66893;44.316;0.092;2024-01-30T01:23:26;9.25;9.25;7.50
76784;PMS7003;66893;44.316;0.092;2024-01-30T01:25:51;14.50;12.00;9.00
76784;PMS7003;66893;44.316;0.092;2024-01-30T01:28:17;12.50;10.25;7.50
76784;PMS7003;66893;44.316;0.092;2024-01-30T01:30:42;6.75;6.00;4.50
76784;PMS7003;66893;44.316;0.092;2024-01-30T01:33:07;8.50;7.75;6.25
76784;PMS7003;66893;44.316;0.092;2024-01-30T01:35:34;13.75;12.25;9.00
76784;PMS7003;66893;44.316;0.092;2024-01-30T01:38:00;9.75;9.75;8.75
76784;PMS7003;66893;44.316;0.092;2024-01-30T01:40:26;8.50;8.50;7.50
76784;PMS7003;66893;44.316;0.092;2024-01-30T01:42:52;11.25;11.25;7.75
76784;PMS7003;66893;44.316;0.092;2024-01-30T01:45:19;11.00;10.75;8.50
76784;PMS7003;66893;44.316;0.092;2024-01-30T01:47:45;13.75;12.50;9.75
76784;PMS7003;66893;44.316;0.092;2024-01-30T01:50:13;8.75;8.75;6.75
76784;PMS7003;66893;44.316;0.092;2024-01-30T01:52:43;11.25;9.25;6.50
76784;PMS7003;66893;44.316;0.092;2024-01-30T01:55:10;13.00;11.25;7.75
76784;PMS7003;66893;44.316;0.092;2024-01-30T01:57:37;11.75;11.75;9.00
76784;PMS7003;66893;44.316;0.092;2024-01-30T02:00:02;14.00;10.50;7.00
76784;PMS7003;66893;44.316;0.092;2024-01-30T02:02:30;8.00;8.00;6.75
76784;PMS7003;66893;44.316;0.092;2024-01-30T02:04:58;11.25;9.75;7.75
76784;PMS7003;66893;44.316;0.092;2024-01-30T02:07:24;14.50;10.50;8.25
76784;PMS7003;66893;44.316;0.092;2024-01-30T02:09:49;10.00;9.00;7.25
76784;PMS7003;66893;44.316;0.092;2024-01-30T02:12:15;11.50;10.25;7.75
76784;PMS7003;66893;44.316;0.092;2024-01-30T02:14:46;12.50;9.75;8.00
76784;PMS7003;66893;44.316;0.092;2024-01-30T02:17:13;11.75;9.75;7.75
76784;PMS7003;66893;44.316;0.092;2024-01-30T02:19:39;10.00;9.25;7.25
76784;PMS7003;66893;44.316;0.092;2024-01-30T02:22:05;9.50;9.00;7.25
76784;PMS7003;66893;44.316;0.092;2024-01-30T02:24:31;9.50;8.00;6.50
76784;PMS7003;66893;44.316;0.092;2024-01-30T02:26:56;13.50;12.00;8.50
76784;PMS7003;66893;44.316;0.092;2024-01-30T02:29:22;10.00;9.25;7.50
76784;PMS7003;66893;44.316;0.092;2024-01-30T02:31:47;10.00;9.25;6.75
76784;PMS7003;66893;44.316;0.092;2024-01-30T02:34:13;13.75;10.75;8.50
76784;PMS7003;66893;44.316;0.092;2024-01-30T02:36:41;10.25;10.25;8.50
76784;PMS7003;66893;44.316;0.092;2024-01-30T02:39:07;11.25;10.50;8.25
76784;PMS7003;66893;44.316;0.092;2024-01-30T02:41:33;11.25;8.75;6.50
76784;PMS7003;66893;44.316;0.092;2024-01-30T02:43:58;9.50;8.75;6.50
76784;PMS7003;66893;44.316;0.092;2024-01-30T02:46:23;14.00;8.75;7.50
76784;PMS7003;66893;44.316;0.092;2024-01-30T02:48:49;11.75;11.75;7.75
76784;PMS7003;66893;44.316;0.092;2024-01-30T02:51:14;11.75;9.75;7.50
76784;PMS7003;66893;44.316;0.092;2024-01-30T02:53:40;11.25;9.50;7.50
76784;PMS7003;66893;44.316;0.092;2024-01-30T02:56:05;8.75;8.00;5.25
76784;PMS7003;66893;44.316;0.092;2024-01-30T02:58:34;9.00;9.00;6.50
76784;PMS7003;66893;44.316;0.092;2024-01-30T03:01:00;11.50;10.25;8.50
76784;PMS7003;66893;44.316;0.092;2024-01-30T03:03:25;9.25;8.75;6.75
76784;PMS7003;66893;44.316;0.092;2024-01-30T03:05:50;10.00;10.00;8.75
76784;PMS7003;66893;44.316;0.092;2024-01-30T03:08:16;10.25;8.25;7.50
76784;PMS7003;66893;44.316;0.092;2024-01-30T03:10:41;10.25;9.50;6.50
76784;PMS7003;66893;44.316;0.092;2024-01-30T03:13:07;12.50;11.00;8.00
76784;PMS7003;66893;44.316;0.092;2024-01-30T03:15:32;12.25;9.75;8.00
76784;PMS7003;66893;44.316;0.092;2024-01-30T03:17:57;11.75;11.75;9.00
76784;PMS7003;66893;44.316;0.092;2024-01-30T03:20:23;9.00;7.50;6.50
76784;PMS7003;66893;44.316;0.092;2024-01-30T03:22:49;8.25;8.25;7.25
76784;PMS7003;66893;44.316;0.092;2024-01-30T03:25:14;13.50;11.25;8.75
76784;PMS7003;66893;44.316;0.092;2024-01-30T03:27:40;13.25;11.50;8.50
76784;PMS7003;66893;44.316;0.092;2024-01-30T03:30:05;11.50;9.00;7.50
76784;PMS7003;66893;44.316;0.092;2024-01-30T03:32:31;9.50;9.50;8.25
76784;PMS7003;66893;44.316;0.092;2024-01-30T03:34:57;9.25;9.25;7.25
76784;PMS7003;66893;44.316;0.092;2024-01-30T03:37:23;10.25;9.75;7.00
76784;PMS7003;66893;44.316;0.092;2024-01-30T03:39:48;8.00;8.00;7.00
76784;PMS7003;66893;44.316;0.092;2024-01-30T03:42:14;8.25;8.25;7.25
76784;PMS7003;66893;44.316;0.092;2024-01-30T03:44:39;11.50;10.75;7.50
76784;PMS7003;66893;44.316;0.092;2024-01-30T03:47:05;14.75;9.25;7.00
76784;PMS7003;66893;44.316;0.092;2024-01-30T03:49:30;10.25;9.25;7.00
76784;PMS7003;66893;44.316;0.092;2024-01-30T03:51:56;14.50;9.75;7.50
76784;PMS7003;66893;44.316;0.092;2024-01-30T03:54:21;13.50;10.25;8.00
76784;PMS7003;66893;44.316;0.092;2024-01-30T03:56:46;11.00;9.25;7.25
76784;PMS7003;66893;44.316;0.092;2024-01-30T03:59:12;10.50;9.25;7.75
76784;PMS7003;66893;44.316;0.092;2024-01-30T04:01:37;10.50;10.25;8.50
76784;PMS7003;66893;44.316;0.092;2024-01-30T04:04:03;8.50;8.50;7.50
76784;PMS7003;66893;44.316;0.092;2024-01-30T04:06:28;10.00;9.50;6.50
76784;PMS7003;66893;44.316;0.092;2024-01-30T04:08:54;10.25;8.00;6.00
76784;PMS7003;66893;44.316;0.092;2024-01-30T04:11:19;9.75;8.25;6.25
76784;PMS7003;66893;44.316;0.092;2024-01-30T04:13:45;12.25;10.00;7.75
76784;PMS7003;66893;44.316;0.092;2024-01-30T04:16:22;9.00;8.75;6.50
76784;PMS7003;66893;44.316;0.092;2024-01-30T04:18:47;11.00;11.00;7.50
76784;PMS7003;66893;44.316;0.092;2024-01-30T04:21:13;12.75;11.50;8.75
76784;PMS7003;66893;44.316;0.092;2024-01-30T04:23:39;13.00;10.25;7.50
76784;PMS7003;66893;44.316;0.092;2024-01-30T04:26:05;9.50;9.25;5.75
76784;PMS7003;66893;44.316;0.092;2024-01-30T04:28:31;11.50;10.50;8.00
76784;PMS7003;66893;44.316;0.092;2024-01-30T04:30:56;14.75;11.50;8.25
76784;PMS7003;66893;44.316;0.092;2024-01-30T04:33:22;11.25;10.25;8.50
76784;PMS7003;66893;44.316;0.092;2024-01-30T04:35:47;14.75;11.75;8.50
76784;PMS7003;66893;44.316;0.092;2024-01-30T04:38:13;13.25;10.75;7.00
76784;PMS7003;66893;44.316;0.092;2024-01-30T04:40:39;10.00;9.50;7.50
76784;PMS7003;66893;44.316;0.092;2024-01-30T04:43:05;9.75;9.75;7.75
76784;PMS7003;66893;44.316;0.092;2024-01-30T04:45:30;13.25;12.50;10.00
76784;PMS7003;66893;44.316;0.092;2024-01-30T04:47:56;10.75;10.00;8.25
76784;PMS7003;66893;44.316;0.092;2024-01-30T04:50:21;8.00;7.50;5.00
76784;PMS7003;66893;44.316;0.092;2024-01-30T04:52:47;9.50;9.00;7.75
76784;PMS7003;66893;44.316;0.092;2024-01-30T04:55:13;13.25;11.50;9.25
76784;PMS7003;66893;44.316;0.092;2024-01-30T04:57:38;12.75;11.00;8.00
76784;PMS7003;66893;44.316;0.092;2024-01-30T05:00:03;9.00;9.00;7.00
76784;PMS7003;66893;44.316;0.092;2024-01-30T05:02:30;11.50;10.25;8.25
76784;PMS7003;66893;44.316;0.092;2024-01-30T05:04:55;12.00;11.00;8.00
76784;PMS7003;66893;44.316;0.092;2024-01-30T05:07:21;13.00;13.00;9.00
76784;PMS7003;66893;44.316;0.092;2024-01-30T05:09:47;14.25;13.50;9.50
76784;PMS7003;66893;44.316;0.092;2024-01-30T05:12:12;13.00;12.00;9.00
76784;PMS7003;66893;44.316;0.092;2024-01-30T05:14:38;11.50;11.50;9.25
76784;PMS7003;66893;44.316;0.092;2024-01-30T05:17:03;10.00;9.50;6.75
76784;PMS7003;66893;44.316;0.092;2024-01-30T05:19:29;13.50;11.50;9.50
76784;PMS7003;66893;44.316;0.092;2024-01-30T05:21:54;13.50;11.50;9.25
76784;PMS7003;66893;44.316;0.092;2024-01-30T05:24:20;14.50;12.00;9.50
76784;PMS7003;66893;44.316;0.092;2024-01-30T05:26:45;13.25;13.25;10.75
76784;PMS7003;66893;44.316;0.092;2024-01-30T05:29:12;12.50;11.25;8.50
76784;PMS7003;66893;44.316;0.092;2024-01-30T05:31:37;12.75;11.00;8.50
76784;PMS7003;66893;44.316;0.092;2024-01-30T05:34:03;14.75;13.75;10.00
76784;PMS7003;66893;44.316;0.092;2024-01-30T05:36:28;13.00;13.00;10.00
76784;PMS7003;66893;44.316;0.092;2024-01-30T05:38:54;11.00;11.00;9.25
76784;PMS7003;66893;44.316;0.092;2024-01-30T05:41:19;11.00;11.00;9.00
76784;PMS7003;66893;44.316;0.092;2024-01-30T05:43:46;12.25;11.25;9.00
76784;PMS7003;66893;44.316;0.092;2024-01-30T05:46:11;13.50;11.75;8.25
76784;PMS7003;66893;44.316;0.092;2024-01-30T05:48:37;12.25;10.00;8.00
76784;PMS7003;66893;44.316;0.092;2024-01-30T05:51:02;19.25;14.00;10.00
76784;PMS7003;66893;44.316;0.092;2024-01-30T05:53:29;11.50;11.00;8.25
76784;PMS7003;66893;44.316;0.092;2024-01-30T05:55:54;14.00;14.00;9.00
76784;PMS7003;66893;44.316;0.092;2024-01-30T05:58:19;12.50;12.50;10.25
76784;PMS7003;66893;44.316;0.092;2024-01-30T06:00:45;15.75;12.50;9.75
76784;PMS7003;66893;44.316;0.092;2024-01-30T06:03:10;14.25;12.00;9.00
76784;PMS7003;66893;44.316;0.092;2024-01-30T06:05:36;13.25;13.00;10.50
76784;PMS7003;66893;44.316;0.092;2024-01-30T06:08:02;11.00;11.00;7.75
76784;PMS7003;66893;44.316;0.092;2024-01-30T06:10:27;16.50;14.75;12.00
76784;PMS7003;66893;44.316;0.092;2024-01-30T06:12:53;14.75;12.50;10.50
76784;PMS7003;66893;44.316;0.092;2024-01-30T06:15:18;12.75;12.75;8.75
76784;PMS7003;66893;44.316;0.092;2024-01-30T06:17:44;12.25;10.75;8.50
76784;PMS7003;66893;44.316;0.092;2024-01-30T06:20:09;13.00;12.25;9.50
76784;PMS7003;66893;44.316;0.092;2024-01-30T06:22:35;13.50;11.75;8.00
76784;PMS7003;66893;44.316;0.092;2024-01-30T06:25:00;17.00;14.25;10.25
76784;PMS7003;66893;44.316;0.092;2024-01-30T06:27:26;14.00;13.25;10.00
76784;PMS7003;66893;44.316;0.092;2024-01-30T06:29:52;14.50;13.00;10.00
76784;PMS7003;66893;44.316;0.092;2024-01-30T06:32:17;14.75;13.00;10.00
76784;PMS7003;66893;44.316;0.092;2024-01-30T06:34:42;13.25;12.50;10.00
76784;PMS7003;66893;44.316;0.092;2024-01-30T06:37:09;13.50;13.25;11.00
76784;PMS7003;66893;44.316;0.092;2024-01-30T06:39:35;9.75;9.25;7.00
76784;PMS7003;66893;44.316;0.092;2024-01-30T06:42:01;12.75;12.50;10.00
76784;PMS7003;66893;44.316;0.092;2024-01-30T06:44:26;14.00;13.00;10.25
76784;PMS7003;66893;44.316;0.092;2024-01-30T06:46:52;17.00;16.25;10.50
76784;PMS7003;66893;44.316;0.092;2024-01-30T06:49:17;13.25;12.75;11.00
76784;PMS7003;66893;44.316;0.092;2024-01-30T06:51:43;16.00;15.00;12.00
76784;PMS7003;66893;44.316;0.092;2024-01-30T06:54:08;13.50;13.50;10.25
76784;PMS7003;66893;44.316;0.092;2024-01-30T06:56:33;18.25;14.75;12.75
76784;PMS7003;66893;44.316;0.092;2024-01-30T06:58:59;15.00;14.75;12.00
76784;PMS7003;66893;44.316;0.092;2024-01-30T07:01:30;15.50;15.50;11.00
76784;PMS7003;66893;44.316;0.092;2024-01-30T07:03:56;15.00;15.00;11.25
76784;PMS7003;66893;44.316;0.092;2024-01-30T07:06:22;12.25;12.25;8.00
76784;PMS7003;66893;44.316;0.092;2024-01-30T07:08:48;19.50;15.50;10.50
76784;PMS7003;66893;44.316;0.092;2024-01-30T07:11:18;15.00;14.25;10.75
76784;PMS7003;66893;44.316;0.092;2024-01-30T07:13:44;16.00;15.25;11.00
76784;PMS7003;66893;44.316;0.092;2024-01-30T07:16:10;20.25;18.25;12.50
76784;PMS7003;66893;44.316;0.092;2024-01-30T07:18:35;18.00;16.00;12.00
76784;PMS7003;66893;44.316;0.092;2024-01-30T07:21:00;20.75;16.50;12.00
76784;PMS7003;66893;44.316;0.092;2024-01-30T07:23:26;19.00;18.50;13.50
76784;PMS7003;66893;44.316;0.092;2024-01-30T07:25:51;18.50;15.75;11.75
76784;PMS7003;66893;44.316;0.092;2024-01-30T07:28:17;24.00;23.50;16.50
76784;PMS7003;66893;44.316;0.092;2024-01-30T07:30:42;29.50;25.00;17.50
76784;PMS7003;66893;44.316;0.092;2024-01-30T07:33:08;27.25;27.00;19.00
76784;PMS7003;66893;44.316;0.092;2024-01-30T07:35:34;27.50;27.50;20.00
76784;PMS7003;66893;44.316;0.092;2024-01-30T07:38:00;29.75;26.00;19.00
76784;PMS7003;66893;44.316;0.092;2024-01-30T07:40:26;27.25;23.50;18.50
76784;PMS7003;66893;44.316;0.092;2024-01-30T07:42:52;28.50;27.50;18.75
76784;PMS7003;66893;44.316;0.092;2024-01-30T07:45:18;30.50;29.00;19.00
76784;PMS7003;66893;44.316;0.092;2024-01-30T07:47:47;25.50;23.75;18.50
76784;PMS7003;66893;44.316;0.092;2024-01-30T07:50:13;26.25;26.25;18.25
76784;PMS7003;66893;44.316;0.092;2024-01-30T07:52:39;28.00;23.50;17.00
76784;PMS7003;66893;44.316;0.092;2024-01-30T07:55:04;27.25;25.75;19.25
76784;PMS7003;66893;44.316;0.092;2024-01-30T07:57:32;29.50;28.00;19.75
76784;PMS7003;66893;44.316;0.092;2024-01-30T07:59:59;30.50;23.25;19.25
76784;PMS7003;66893;44.316;0.092;2024-01-30T08:02:24;35.00;29.25;22.00
76784;PMS7003;66893;44.316;0.092;2024-01-30T08:04:50;29.25;25.50;20.00
76784;PMS7003;66893;44.316;0.092;2024-01-30T08:07:15;35.25;30.75;22.00
76784;PMS7003;66893;44.316;0.092;2024-01-30T08:09:42;35.25;30.00;21.75
76784;PMS7003;66893;44.316;0.092;2024-01-30T08:12:08;39.00;31.75;23.00
76784;PMS7003;66893;44.316;0.092;2024-01-30T08:14:33;41.25;34.75;22.25
76784;PMS7003;66893;44.316;0.092;2024-01-30T08:16:59;42.50;34.75;24.00
76784;PMS7003;66893;44.316;0.092;2024-01-30T08:19:24;33.00;30.00;22.75
76784;PMS7003;66893;44.316;0.092;2024-01-30T08:21:49;40.00;34.75;23.25
76784;PMS7003;66893;44.316;0.092;2024-01-30T08:24:15;38.25;33.00;22.75
76784;PMS7003;66893;44.316;0.092;2024-01-30T08:26:40;35.25;32.00;22.00
76784;PMS7003;66893;44.316;0.092;2024-01-30T08:29:06;33.75;30.75;22.00
76784;PMS7003;66893;44.316;0.092;2024-01-30T08:31:31;38.75;33.25;23.50
76784;PMS7003;66893;44.316;0.092;2024-01-30T08:33:57;38.50;32.00;23.00
76784;PMS7003;66893;44.316;0.092;2024-01-30T08:36:22;42.00;34.00;23.00
76784;PMS7003;66893;44.316;0.092;2024-01-30T08:38:48;41.75;34.00;22.00
76784;PMS7003;66893;44.316;0.092;2024-01-30T08:41:13;39.25;33.00;24.25
76784;PMS7003;66893;44.316;0.092;2024-01-30T08:43:39;44.00;35.50;24.00
76784;PMS7003;66893;44.316;0.092;2024-01-30T08:46:04;42.50;32.75;22.75
76784;PMS7003;66893;44.316;0.092;2024-01-30T08:48:29;41.25;32.75;23.75
76784;PMS7003;66893;44.316;0.092;2024-01-30T08:50:55;43.25;34.25;23.50
76784;PMS7003;66893;44.316;0.092;2024-01-30T08:53:20;38.75;32.75;23.00
76784;PMS7003;66893;44.316;0.092;2024-01-30T08:55:46;38.00;34.25;24.00
76784;PMS7003;66893;44.316;0.092;2024-01-30T08:58:11;43.25;37.25;24.00
76784;PMS7003;66893;44.316;0.092;2024-01-30T09:00:37;40.25;33.25;23.00
76784;PMS7003;66893;44.316;0.092;2024-01-30T09:03:03;38.25;33.75;24.00
76784;PMS7003;66893;44.316;0.092;2024-01-30T09:05:28;37.75;33.25;23.25
76784;PMS7003;66893;44.316;0.092;2024-01-30T09:07:54;38.25;33.25;23.50
76784;PMS7003;66893;44.316;0.092;2024-01-30T09:10:19;41.25;34.50;24.00
76784;PMS7003;66893;44.316;0.092;2024-01-30T09:12:45;42.50;33.50;24.00
76784;PMS7003;66893;44.316;0.092;2024-01-30T09:15:11;47.50;36.75;25.50
76784;PMS7003;66893;44.316;0.092;2024-01-30T09:17:36;38.00;33.00;24.00
76784;PMS7003;66893;44.316;0.092;2024-01-30T09:20:02;54.50;42.75;28.25
76784;PMS7003;66893;44.316;0.092;2024-01-30T09:22:28;61.50;48.75;32.00
76784;PMS7003;66893;44.316;0.092;2024-01-30T09:24:53;56.50;45.00;30.00
76784;PMS7003;66893;44.316;0.092;2024-01-30T09:27:18;63.75;49.25;32.75
76784;PMS7003;66893;44.316;0.092;2024-01-30T09:29:45;67.25;53.25;35.25
76784;PMS7003;66893;44.316;0.092;2024-01-30T09:32:10;53.25;42.50;31.00
76784;PMS7003;66893;44.316;0.092;2024-01-30T09:34:35;56.75;46.50;31.00
76784;PMS7003;66893;44.316;0.092;2024-01-30T09:37:01;57.50;45.25;30.75
76784;PMS7003;66893;44.316;0.092;2024-01-30T09:39:27;52.75;43.75;29.75
76784;PMS7003;66893;44.316;0.092;2024-01-30T09:42:00;50.75;42.75;30.00
76784;PMS7003;66893;44.316;0.092;2024-01-30T09:44:28;48.75;37.75;25.00
76784;PMS7003;66893;44.316;0.092;2024-01-30T09:46:54;51.00;42.50;28.25
76784;PMS7003;66893;44.316;0.092;2024-01-30T09:49:20;47.50;38.25;26.00
76784;PMS7003;66893;44.316;0.092;2024-01-30T09:51:48;39.75;33.00;23.00
76784;PMS7003;66893;44.316;0.092;2024-01-30T09:54:15;29.75;25.75;18.25
76784;PMS7003;66893;44.316;0.092;2024-01-30T09:56:41;35.25;28.50;20.00
76784;PMS7003;66893;44.316;0.092;2024-01-30T09:59:06;24.00;19.75;16.00
76784;PMS7003;66893;44.316;0.092;2024-01-30T10:01:32;23.00;22.50;15.00
76784;PMS7003;66893;44.316;0.092;2024-01-30T10:03:59;28.25;28.00;19.75
76784;PMS7003;66893;44.316;0.092;2024-01-30T10:06:25;36.50;32.75;24.00
76784;PMS7003;66893;44.316;0.092;2024-01-30T10:08:52;23.50;21.25;17.75
76784;PMS7003;66893;44.316;0.092;2024-01-30T10:11:18;16.75;15.50;12.50
76784;PMS7003;66893;44.316;0.092;2024-01-30T10:13:43;21.25;19.00;12.75
76784;PMS7003;66893;44.316;0.092;2024-01-30T10:16:08;19.25;18.25;14.75
76784;PMS7003;66893;44.316;0.092;2024-01-30T10:18:34;15.25;15.25;12.50
76784;PMS7003;66893;44.316;0.092;2024-01-30T10:20:59;22.75;21.00;15.75
76784;PMS7003;66893;44.316;0.092;2024-01-30T10:23:25;15.50;14.25;11.00
76784;PMS7003;66893;44.316;0.092;2024-01-30T10:25:51;16.25;15.75;11.00
76784;PMS7003;66893;44.316;0.092;2024-01-30T10:28:17;16.25;15.00;10.50
76784;PMS7003;66893;44.316;0.092;2024-01-30T10:30:43;14.00;12.00;9.00
76784;PMS7003;66893;44.316;0.092;2024-01-30T10:33:08;16.00;14.25;11.00
76784;PMS7003;66893;44.316;0.092;2024-01-30T10:35:34;11.25;11.25;7.50
76784;PMS7003;66893;44.316;0.092;2024-01-30T10:38:00;15.00;13.25;10.50
76784;PMS7003;66893;44.316;0.092;2024-01-30T10:40:28;16.50;14.75;10.75
76784;PMS7003;66893;44.316;0.092;2024-01-30T10:42:54;15.00;11.50;8.00
76784;PMS7003;66893;44.316;0.092;2024-01-30T10:45:21;13.75;12.25;9.50
76784;PMS7003;66893;44.316;0.092;2024-01-30T10:47:52;14.50;10.00;7.50
76784;PMS7003;66893;44.316;0.092;2024-01-30T10:50:19;15.00;14.00;9.25
76784;PMS7003;66893;44.316;0.092;2024-01-30T10:52:45;15.50;12.50;10.50
76784;PMS7003;66893;44.316;0.092;2024-01-30T10:55:12;14.75;14.50;10.50
76784;PMS7003;66893;44.316;0.092;2024-01-30T10:57:40;13.00;12.50;9.50
76784;PMS7003;66893;44.316;0.092;2024-01-30T11:00:10;14.50;12.75;9.25
76784;PMS7003;66893;44.316;0.092;2024-01-30T11:02:41;11.75;11.50;9.00
76784;PMS7003;66893;44.316;0.092;2024-01-30T11:05:09;10.00;9.50;6.75
76784;PMS7003;66893;44.316;0.092;2024-01-30T11:07:35;11.75;11.50;9.25
76784;PMS7003;66893;44.316;0.092;2024-01-30T11:10:02;12.00;11.75;8.75
76784;PMS7003;66893;44.316;0.092;2024-01-30T11:12:30;14.00;12.00;9.50
76784;PMS7003;66893;44.316;0.092;2024-01-30T11:20:09;10.50;10.50;8.25
76784;PMS7003;66893;44.316;0.092;2024-01-30T11:22:35;8.75;8.75;7.50
76784;PMS7003;66893;44.316;0.092;2024-01-30T11:25:01;9.25;9.25;8.50
76784;PMS7003;66893;44.316;0.092;2024-01-30T11:27:28;10.00;9.00;6.75
76784;PMS7003;66893;44.316;0.092;2024-01-30T11:30:00;14.50;10.75;8.50
76784;PMS7003;66893;44.316;0.092;2024-01-30T11:32:26;10.75;9.50;7.50
76784;PMS7003;66893;44.316;0.092;2024-01-30T11:34:52;11.75;10.25;7.75
76784;PMS7003;66893;44.316;0.092;2024-01-30T11:37:17;14.75;9.75;7.00
76784;PMS7003;66893;44.316;0.092;2024-01-30T11:39:46;11.00;10.00;7.75
76784;PMS7003;66893;44.316;0.092;2024-01-30T11:42:13;8.25;8.25;6.50
76784;PMS7003;66893;44.316;0.092;2024-01-30T11:44:39;14.50;11.75;7.50
76784;PMS7003;66893;44.316;0.092;2024-01-30T11:47:04;10.25;10.25;7.75
76784;PMS7003;66893;44.316;0.092;2024-01-30T11:49:29;9.25;9.25;6.50
76784;PMS7003;66893;44.316;0.092;2024-01-30T11:51:55;10.00;10.00;7.00
76784;PMS7003;66893;44.316;0.092;2024-01-30T11:54:21;8.50;6.25;5.25
76784;PMS7003;66893;44.316;0.092;2024-01-30T11:56:46;9.50;8.50;6.50
76784;PMS7003;66893;44.316;0.092;2024-01-30T11:59:12;10.75;9.00;6.25
76784;PMS7003;66893;44.316;0.092;2024-01-30T12:01:39;8.00;8.00;6.50
76784;PMS7003;66893;44.316;0.092;2024-01-30T12:04:04;20.75;15.25;9.25
76784;PMS7003;66893;44.316;0.092;2024-01-30T12:06:34;10.75;9.75;7.50
76784;PMS7003;66893;44.316;0.092;2024-01-30T12:09:00;13.25;10.75;8.25
76784;PMS7003;66893;44.316;0.092;2024-01-30T12:11:29;9.00;9.00;8.00
76784;PMS7003;66893;44.316;0.092;2024-01-30T12:13:55;9.00;8.25;6.00
76784;PMS7003;66893;44.316;0.092;2024-01-30T12:16:25;13.25;9.00;5.75
76784;PMS7003;66893;44.316;0.092;2024-01-30T12:18:58;10.00;9.75;7.50
76784;PMS7003;66893;44.316;0.092;2024-01-30T12:21:24;11.00;11.00;8.25
76784;PMS7003;66893;44.316;0.092;2024-01-30T12:23:50;12.75;11.00;9.00
76784;PMS7003;66893;44.316;0.092;2024-01-30T12:26:16;10.50;9.25;8.00
76784;PMS7003;66893;44.316;0.092;2024-01-30T12:28:48;9.50;9.50;7.00
76784;PMS7003;66893;44.316;0.092;2024-01-30T12:31:17;9.00;6.00;5.00
76784;PMS7003;66893;44.316;0.092;2024-01-30T12:33:42;10.00;9.75;8.00
76784;PMS7003;66893;44.316;0.092;2024-01-30T12:36:08;9.50;9.50;6.25
76784;PMS7003;66893;44.316;0.092;2024-01-30T12:38:33;11.50;9.00;6.25
76784;PMS7003;66893;44.316;0.092;2024-01-30T12:40:59;7.50;7.50;5.00
76784;PMS7003;66893;44.316;0.092;2024-01-30T12:43:24;8.75;8.50;5.25
76784;PMS7003;66893;44.316;0.092;2024-01-30T12:45:52;8.00;7.25;6.00
76784;PMS7003;66893;44.316;0.092;2024-01-30T12:48:18;7.50;6.00;5.00
76784;PMS7003;66893;44.316;0.092;2024-01-30T12:50:43;8.25;7.25;6.00
76784;PMS7003;66893;44.316;0.092;2024-01-30T12:53:09;8.50;8.50;6.00
76784;PMS7003;66893;44.316;0.092;2024-01-30T12:55:34;8.75;7.75;5.75
76784;PMS7003;66893;44.316;0.092;2024-01-30T12:58:00;8.00;6.50;5.00
76784;PMS7003;66893;44.316;0.092;2024-01-30T13:00:26;7.75;6.75;5.25
76784;PMS7003;66893;44.316;0.092;2024-01-30T13:02:51;9.75;9.00;6.75
76784;PMS7003;66893;44.316;0.092;2024-01-30T13:05:19;8.50;7.25;5.00
76784;PMS7003;66893;44.316;0.092;2024-01-30T13:07:44;5.50;5.25;4.00
76784;PMS7003;66893;44.316;0.092;2024-01-30T13:10:10;9.00;7.25;6.00
76784;PMS7003;66893;44.316;0.092;2024-01-30T13:12:35;7.25;7.25;5.00
76784;PMS7003;66893;44.316;0.092;2024-01-30T13:15:02;10.25;7.25;5.00
76784;PMS7003;66893;44.316;0.092;2024-01-30T13:17:29;8.75;8.50;6.25
76784;PMS7003;66893;44.316;0.092;2024-01-30T13:19:55;10.25;7.25;5.00
76784;PMS7003;66893;44.316;0.092;2024-01-30T13:22:21;8.25;7.50;5.00
76784;PMS7003;66893;44.316;0.092;2024-01-30T13:24:46;10.00;6.75;5.25
76784;PMS7003;66893;44.316;0.092;2024-01-30T13:27:12;7.75;6.25;5.50
76784;PMS7003;66893;44.316;0.092;2024-01-30T13:29:37;5.50;5.50;5.00
76784;PMS7003;66893;44.316;0.092;2024-01-30T13:32:03;5.00;5.00;4.00
76784;PMS7003;66893;44.316;0.092;2024-01-30T13:34:29;8.25;6.50;4.25
76784;PMS7003;66893;44.316;0.092;2024-01-30T13:36:54;8.50;8.50;5.75
76784;PMS7003;66893;44.316;0.092;2024-01-30T13:39:20;8.00;7.00;6.00
76784;PMS7003;66893;44.316;0.092;2024-01-30T13:41:45;12.75;8.00;6.00
76784;PMS7003;66893;44.316;0.092;2024-01-30T13:44:13;8.00;5.75;4.25
76784;PMS7003;66893;44.316;0.092;2024-01-30T13:46:38;9.00;8.25;5.75
76784;PMS7003;66893;44.316;0.092;2024-01-30T13:49:04;7.50;6.50;5.50
76784;PMS7003;66893;44.316;0.092;2024-01-30T13:51:29;8.75;8.25;5.75
76784;PMS7003;66893;44.316;0.092;2024-01-30T13:53:55;6.25;6.25;5.00
76784;PMS7003;66893;44.316;0.092;2024-01-30T13:56:20;8.00;7.00;6.00
76784;PMS7003;66893;44.316;0.092;2024-01-30T13:58:47;6.50;6.00;5.00